createdAt,value
2023-05-15T00:00:37.952Z,17.85
2023-05-15T00:03:04.912Z,17.89
2023-05-15T00:05:31.920Z,17.96
2023-05-15T00:07:58.804Z,18.00
2023-05-15T00:10:25.549Z,18.01
2023-05-15T00:12:52.295Z,18.00
2023-05-15T00:15:19.002Z,18.01
2023-05-15T00:17:45.800Z,17.98
2023-05-15T00:20:13.020Z,17.95
2023-05-15T00:22:39.851Z,17.82
2023-05-15T00:25:07.279Z,17.80
2023-05-15T00:27:34.086Z,17.82
2023-05-15T00:30:03.764Z,17.80
2023-05-15T00:32:30.679Z,17.79
2023-05-15T00:34:57.490Z,17.80
2023-05-15T00:37:24.406Z,17.82
2023-05-15T00:39:51.562Z,17.82
2023-05-15T00:42:18.936Z,17.79
2023-05-15T00:44:46.725Z,17.78
2023-05-15T00:47:16.076Z,17.75
2023-05-15T00:49:43.503Z,17.60
2023-05-15T00:52:11.910Z,17.34
2023-05-15T00:54:38.689Z,17.15
2023-05-15T00:57:07.589Z,17.14
2023-05-15T00:59:39.020Z,17.13
2023-05-15T01:02:05.968Z,17.14
2023-05-15T01:04:32.736Z,17.25
2023-05-15T01:06:59.549Z,17.13
2023-05-15T01:09:30.106Z,17.08
2023-05-15T01:11:59.694Z,17.00
2023-05-15T01:14:27.476Z,16.91
2023-05-15T01:16:54.327Z,16.94
2023-05-15T01:19:21.328Z,16.92
2023-05-15T01:22:14.573Z,16.96
2023-05-15T01:24:41.275Z,17.08
2023-05-15T01:27:26.195Z,17.18
2023-05-15T01:30:39.526Z,17.18
2023-05-15T01:33:23.281Z,17.22
2023-05-15T01:36:06.052Z,17.26
2023-05-15T01:38:39.941Z,17.29
2023-05-15T01:41:29.372Z,17.31
2023-05-15T01:44:08.515Z,17.27
2023-05-15T01:46:39.699Z,17.25
2023-05-15T01:49:11.133Z,17.03
2023-05-15T01:51:39.414Z,17.02
2023-05-15T01:54:09.063Z,16.92
2023-05-15T01:56:37.681Z,16.70
2023-05-15T01:59:05.645Z,16.75
2023-05-15T02:01:33.241Z,16.82
2023-05-15T02:04:02.642Z,16.84
2023-05-15T02:06:32.348Z,16.88
2023-05-15T02:09:02.475Z,16.87
2023-05-15T02:11:30.901Z,16.92
2023-05-15T02:13:59.269Z,16.93
2023-05-15T02:16:26.044Z,16.94
2023-05-15T02:18:53.073Z,17.03
2023-05-15T02:21:25.279Z,16.93
2023-05-15T02:23:51.938Z,16.79
2023-05-15T02:26:31.178Z,16.74
2023-05-15T02:29:16.183Z,16.82
2023-05-15T02:32:00.226Z,16.49
2023-05-15T02:34:31.768Z,16.36
2023-05-15T02:37:01.437Z,16.42
2023-05-15T02:39:29.476Z,16.49
2023-05-15T02:41:58.070Z,16.59
2023-05-15T02:44:26.203Z,16.60
2023-05-15T02:46:54.258Z,16.67
2023-05-15T02:49:22.243Z,16.73
2023-05-15T02:51:49.083Z,16.76
2023-05-15T02:54:15.878Z,16.76
2023-05-15T02:56:42.859Z,16.76
2023-05-15T02:59:09.617Z,16.59
2023-05-15T03:01:36.435Z,16.34
2023-05-15T03:04:03.348Z,16.32
2023-05-15T03:06:31.696Z,16.38
2023-05-15T03:08:58.477Z,16.42
2023-05-15T03:11:25.314Z,16.43
2023-05-15T03:13:52.071Z,16.53
2023-05-15T03:16:18.838Z,16.58
2023-05-15T03:18:46.305Z,16.46
2023-05-15T03:21:13.544Z,16.37
2023-05-15T03:23:40.599Z,16.34
2023-05-15T03:26:07.417Z,16.22
2023-05-15T03:28:34.272Z,16.22
2023-05-15T03:31:01.162Z,16.19
2023-05-15T03:33:27.902Z,16.08
2023-05-15T03:35:54.602Z,16.11
2023-05-15T03:38:21.736Z,16.03
2023-05-15T03:40:50.854Z,16.05
2023-05-15T03:43:17.899Z,15.98
2023-05-15T03:45:44.657Z,16.02
2023-05-15T03:48:11.512Z,15.98
2023-05-15T03:50:39.418Z,15.93
2023-05-15T03:53:06.265Z,15.79
2023-05-15T03:55:33.217Z,15.79
2023-05-15T03:58:00.038Z,15.90
2023-05-15T04:00:27.985Z,15.81
2023-05-15T04:02:55.053Z,15.84
2023-05-15T04:05:22.633Z,15.78
2023-05-15T04:07:49.598Z,15.77
2023-05-15T04:10:16.394Z,15.87
2023-05-15T04:12:43.172Z,15.82
2023-05-15T04:15:26.337Z,15.81
2023-05-15T04:17:54.348Z,15.88
2023-05-15T04:20:23.020Z,15.91
2023-05-15T04:22:50.683Z,15.77
2023-05-15T04:25:18.175Z,15.85
2023-05-15T04:27:45.218Z,15.84
2023-05-15T04:30:12.780Z,15.76
2023-05-15T04:32:40.445Z,15.74
2023-05-15T04:35:13.389Z,15.69
2023-05-15T04:37:41.322Z,15.63
2023-05-15T04:40:09.476Z,15.78
2023-05-15T04:42:38.824Z,15.75
2023-05-15T04:45:07.027Z,15.82
2023-05-15T04:47:33.975Z,15.90
2023-05-15T04:50:03.289Z,15.96
2023-05-15T04:52:30.218Z,16.04
2023-05-15T04:54:57.002Z,15.99
2023-05-15T04:57:23.972Z,16.03
2023-05-15T04:59:50.756Z,16.04
2023-05-15T05:02:22.151Z,16.08
2023-05-15T05:04:49.248Z,16.04
2023-05-15T05:07:16.131Z,15.98
2023-05-15T05:09:43.038Z,16.02
2023-05-15T05:12:10.358Z,16.05
2023-05-15T05:14:37.238Z,16.07
2023-05-15T05:17:04.258Z,15.97
2023-05-15T05:19:31.161Z,15.93
2023-05-15T05:22:01.353Z,15.95
2023-05-15T05:24:28.559Z,16.05
2023-05-15T05:26:58.119Z,16.07
2023-05-15T05:29:25.701Z,16.04
2023-05-15T05:31:53.084Z,16.13
2023-05-15T05:34:20.374Z,16.12
2023-05-15T05:36:47.221Z,16.08
2023-05-15T05:39:14.356Z,16.19
2023-05-15T05:41:41.153Z,16.19
2023-05-15T05:44:08.044Z,16.22
2023-05-15T05:46:35.223Z,16.20
2023-05-15T05:49:02.029Z,16.13
2023-05-15T05:51:28.798Z,16.26
2023-05-15T05:53:55.585Z,16.17
2023-05-15T05:56:22.767Z,16.17
2023-05-15T05:58:49.577Z,16.17
2023-05-15T06:01:16.584Z,16.20
2023-05-15T06:03:43.797Z,16.22
2023-05-15T06:06:10.897Z,16.34
2023-05-15T06:08:37.740Z,16.25
2023-05-15T06:11:05.213Z,16.24
2023-05-15T06:13:31.954Z,16.25
2023-05-15T06:15:58.724Z,16.13
2023-05-15T06:18:25.593Z,16.08
2023-05-15T06:20:53.431Z,16.08
2023-05-15T06:23:20.637Z,16.12
2023-05-15T06:25:48.593Z,16.15
2023-05-15T06:28:15.430Z,16.08
2023-05-15T06:30:42.740Z,16.14
2023-05-15T06:33:09.633Z,16.26
2023-05-15T06:35:36.442Z,16.26
2023-05-15T06:38:03.333Z,16.32
2023-05-15T06:40:30.221Z,16.35
2023-05-15T06:42:56.913Z,16.55
2023-05-15T06:45:23.912Z,16.71
2023-05-15T06:47:50.941Z,16.89
2023-05-15T06:50:17.717Z,16.96
2023-05-15T06:52:44.512Z,17.14
2023-05-15T06:55:11.320Z,17.34
2023-05-15T06:57:38.123Z,17.55
2023-05-15T07:00:05.936Z,17.72
2023-05-15T07:02:32.695Z,17.72
2023-05-15T07:04:59.481Z,17.73
2023-05-15T07:07:26.266Z,17.90
2023-05-15T07:09:53.045Z,18.03
2023-05-15T07:12:19.755Z,17.96
2023-05-15T07:14:46.539Z,18.14
2023-05-15T07:17:13.790Z,18.19
2023-05-15T07:19:40.695Z,18.17
2023-05-15T07:22:07.918Z,18.35
2023-05-15T07:24:34.715Z,18.34
2023-05-15T07:27:01.552Z,18.41
2023-05-15T07:29:28.331Z,18.26
2023-05-15T07:31:55.156Z,18.30
2023-05-15T07:34:22.124Z,18.28
2023-05-15T07:36:49.001Z,18.31
2023-05-15T07:39:16.126Z,18.44
2023-05-15T07:41:42.885Z,18.53
2023-05-15T07:44:10.755Z,18.79
2023-05-15T07:46:39.015Z,18.82
2023-05-15T07:49:05.955Z,18.75
2023-05-15T07:51:32.714Z,18.75
2023-05-15T07:53:59.421Z,18.79
2023-05-15T07:56:26.262Z,18.92
2023-05-15T07:58:54.189Z,18.97
2023-05-15T08:01:20.875Z,18.87
2023-05-15T08:03:47.730Z,19.17
2023-05-15T08:06:14.659Z,19.05
2023-05-15T08:08:41.412Z,19.29
2023-05-15T08:11:08.244Z,19.50
2023-05-15T08:13:35.017Z,19.78
2023-05-15T08:16:01.771Z,19.70
2023-05-15T08:18:28.561Z,19.74
2023-05-15T08:20:55.308Z,19.89
2023-05-15T08:23:22.088Z,19.96
2023-05-15T08:25:48.796Z,20.03
2023-05-15T08:28:15.577Z,20.17
2023-05-15T08:30:42.397Z,20.39
2023-05-15T08:33:09.360Z,20.56
2023-05-15T08:35:36.146Z,20.64
2023-05-15T08:38:03.278Z,20.73
2023-05-15T08:40:39.308Z,20.87
2023-05-15T08:43:15.718Z,21.13
2023-05-15T08:45:43.662Z,21.08
2023-05-15T08:48:20.668Z,21.06
2023-05-15T08:50:47.896Z,21.20
2023-05-15T08:53:14.979Z,21.45
2023-05-15T08:55:42.448Z,21.57
2023-05-15T08:58:09.495Z,21.62
2023-05-15T09:00:36.383Z,21.75
2023-05-15T09:03:03.310Z,21.92
2023-05-15T09:05:30.790Z,21.92
2023-05-15T09:07:59.872Z,22.04
2023-05-15T09:10:26.793Z,22.11
2023-05-15T09:12:54.698Z,22.17
2023-05-15T09:15:25.414Z,22.33
2023-05-15T09:17:52.727Z,22.42
2023-05-15T09:20:37.757Z,22.55
2023-05-15T09:23:21.737Z,22.56
2023-05-15T09:25:53.217Z,22.66
2023-05-15T09:28:28.037Z,22.65
2023-05-15T09:31:03.023Z,22.68
2023-05-15T09:33:41.616Z,22.67
2023-05-15T09:36:09.763Z,22.63
2023-05-15T09:38:48.549Z,22.79
2023-05-15T09:41:24.324Z,22.80
2023-05-15T09:43:51.157Z,22.84
2023-05-15T09:46:18.059Z,22.84
2023-05-15T09:48:45.139Z,22.83
2023-05-15T09:51:17.911Z,22.95
2023-05-15T09:53:54.317Z,22.97
2023-05-15T09:56:22.160Z,22.95
2023-05-15T09:58:56.191Z,22.83
2023-05-15T10:01:24.198Z,22.80
2023-05-15T10:04:02.216Z,22.81
2023-05-15T10:06:42.787Z,22.93
2023-05-15T10:09:11.048Z,23.03
2023-05-15T10:11:39.774Z,23.16
2023-05-15T10:14:08.636Z,23.24
2023-05-15T10:16:37.018Z,23.26
2023-05-15T10:19:05.761Z,23.18
2023-05-15T10:21:34.967Z,23.28
2023-05-15T10:24:02.711Z,23.24
2023-05-15T10:26:36.408Z,23.31
2023-05-15T10:29:14.545Z,23.41
2023-05-15T10:31:41.676Z,23.34
2023-05-15T10:34:10.309Z,23.21
2023-05-15T10:36:38.583Z,23.25
2023-05-15T10:39:06.670Z,23.10
2023-05-15T10:41:37.347Z,23.28
2023-05-15T10:44:04.307Z,23.22
2023-05-15T10:46:34.819Z,23.21
2023-05-15T10:49:01.859Z,23.13
2023-05-15T10:51:31.871Z,23.04
2023-05-15T10:54:03.712Z,22.95
2023-05-15T10:56:31.011Z,23.01
2023-05-15T10:58:58.045Z,22.96
2023-05-15T11:01:33.110Z,23.08
2023-05-15T11:04:17.247Z,23.20
2023-05-15T11:06:46.113Z,23.15
2023-05-15T11:09:22.276Z,23.19
2023-05-15T11:11:52.412Z,23.25
2023-05-15T11:14:19.724Z,23.31
2023-05-15T11:16:55.868Z,23.19
2023-05-15T11:19:28.956Z,23.04
2023-05-15T11:22:00.057Z,23.09
2023-05-15T11:24:30.339Z,23.07
2023-05-15T11:27:01.739Z,23.12
2023-05-15T11:29:28.991Z,23.06
2023-05-15T11:31:55.979Z,22.92
2023-05-15T11:34:35.722Z,22.95
2023-05-15T11:37:02.430Z,22.79
2023-05-15T11:39:29.318Z,22.92
2023-05-15T11:41:56.817Z,23.01
2023-05-15T11:44:26.713Z,22.95
2023-05-15T11:46:53.764Z,22.95
2023-05-15T11:49:20.951Z,22.82
2023-05-15T11:51:51.506Z,22.84
2023-05-15T11:54:18.869Z,22.74
2023-05-15T11:56:45.743Z,22.77
2023-05-15T11:59:17.367Z,22.70
2023-05-15T12:01:47.701Z,22.64
2023-05-15T12:04:18.911Z,22.64
2023-05-15T12:06:49.886Z,22.79
2023-05-15T12:09:19.539Z,22.76
2023-05-15T12:11:52.016Z,22.97
2023-05-15T12:14:29.735Z,23.07
2023-05-15T12:17:04.550Z,23.20
2023-05-15T12:19:31.790Z,23.16
2023-05-15T12:21:58.593Z,23.04
2023-05-15T12:24:26.745Z,22.87
2023-05-15T12:26:55.953Z,23.01
2023-05-15T12:29:24.597Z,22.83
2023-05-15T12:31:53.997Z,23.00
2023-05-15T12:34:22.008Z,22.73
2023-05-15T12:36:48.904Z,22.99
2023-05-15T12:39:15.858Z,23.14
2023-05-15T12:41:46.028Z,23.18
2023-05-15T12:44:21.080Z,22.98
2023-05-15T12:46:48.316Z,22.73
2023-05-15T12:49:21.728Z,22.95
2023-05-15T12:51:48.620Z,22.92
2023-05-15T12:54:19.827Z,22.37
2023-05-15T12:56:50.002Z,22.13
2023-05-15T12:59:16.956Z,22.16
2023-05-15T13:01:45.136Z,22.28
2023-05-15T13:04:12.113Z,22.33
2023-05-15T13:06:46.385Z,22.20
2023-05-15T13:09:14.195Z,22.27
2023-05-15T13:11:45.101Z,22.12
2023-05-15T13:14:17.471Z,21.87
2023-05-15T13:16:47.402Z,21.94
2023-05-15T13:19:15.840Z,21.78
2023-05-15T13:21:43.957Z,21.76
2023-05-15T13:24:10.802Z,21.47
2023-05-15T13:26:37.927Z,21.44
2023-05-15T13:29:04.773Z,21.57
2023-05-15T13:31:32.215Z,21.67
2023-05-15T13:33:59.075Z,21.75
2023-05-15T13:36:25.838Z,21.67
2023-05-15T13:38:52.610Z,21.57
2023-05-15T13:41:19.397Z,21.66
2023-05-15T13:43:49.481Z,21.41
2023-05-15T13:46:16.492Z,21.43
2023-05-15T13:48:43.552Z,21.34
2023-05-15T13:51:10.649Z,21.13
2023-05-15T13:53:37.423Z,21.10
2023-05-15T13:56:04.308Z,20.99
2023-05-15T13:58:31.201Z,20.96
2023-05-15T14:00:58.013Z,20.89
2023-05-15T14:03:24.859Z,20.82
2023-05-15T14:05:51.925Z,20.87
2023-05-15T14:08:18.796Z,20.63
2023-05-15T14:10:45.605Z,20.72
2023-05-15T14:13:12.321Z,20.82
2023-05-15T14:15:39.035Z,20.81
2023-05-15T14:18:05.873Z,20.86
2023-05-15T14:20:32.639Z,20.90
2023-05-15T14:22:59.431Z,20.83
2023-05-15T14:25:26.172Z,20.81
2023-05-15T14:27:53.009Z,20.96
2023-05-15T14:30:21.945Z,20.87
2023-05-15T14:32:48.770Z,20.88
2023-05-15T14:35:15.645Z,21.06
2023-05-15T14:37:43.354Z,21.20
2023-05-15T14:40:10.732Z,21.22
2023-05-15T14:42:37.526Z,21.36
2023-05-15T14:45:05.039Z,21.41
2023-05-15T14:47:32.100Z,21.37
2023-05-15T14:49:59.040Z,21.30
2023-05-15T14:52:25.906Z,21.35
2023-05-15T14:55:04.921Z,21.27
2023-05-15T14:57:35.154Z,21.36
2023-05-15T15:00:02.134Z,21.43
2023-05-15T15:02:29.224Z,21.35
2023-05-15T15:04:56.082Z,21.29
2023-05-15T15:07:22.840Z,21.32
2023-05-15T15:09:49.612Z,21.38
2023-05-15T15:12:16.423Z,21.31
2023-05-15T15:14:43.162Z,21.24
2023-05-15T15:17:09.901Z,21.27
2023-05-15T15:19:36.602Z,21.28
2023-05-15T15:22:03.645Z,21.20
2023-05-15T15:24:30.451Z,21.20
2023-05-15T15:26:57.239Z,21.19
2023-05-15T15:29:24.049Z,20.99
2023-05-15T15:31:50.812Z,20.95
2023-05-15T15:34:17.627Z,20.88
2023-05-15T15:36:45.075Z,20.90
2023-05-15T15:39:13.188Z,20.82
2023-05-15T15:41:39.997Z,20.69
2023-05-15T15:44:06.806Z,20.69
2023-05-15T15:46:33.717Z,20.59
2023-05-15T15:49:00.561Z,20.64
2023-05-15T15:51:27.322Z,20.63
2023-05-15T15:53:54.087Z,20.54
2023-05-15T15:56:21.401Z,20.40
2023-05-15T15:58:48.289Z,20.39
2023-05-15T16:01:15.390Z,20.36
2023-05-15T16:03:42.298Z,20.43
2023-05-15T16:06:09.069Z,20.46
2023-05-15T16:08:35.848Z,20.51
2023-05-15T16:11:02.744Z,20.48
2023-05-15T16:13:29.564Z,20.45
2023-05-15T16:15:56.819Z,20.52
2023-05-15T16:18:23.774Z,20.53
2023-05-15T16:20:50.570Z,20.50
2023-05-15T16:23:17.498Z,20.57
2023-05-15T16:25:45.271Z,20.42
2023-05-15T16:28:12.236Z,20.38
2023-05-15T16:33:09.091Z,20.49
2023-05-15T16:35:39.341Z,20.48
2023-05-15T16:38:06.068Z,20.56
2023-05-15T16:40:32.889Z,20.53
2023-05-15T16:42:59.668Z,20.48
2023-05-15T16:45:26.526Z,20.42
2023-05-15T16:47:53.415Z,20.54
2023-05-15T16:50:20.618Z,20.44
2023-05-15T16:52:48.200Z,20.48
2023-05-15T16:55:16.508Z,20.54
2023-05-15T16:57:46.715Z,20.48
2023-05-15T17:00:14.532Z,20.49
2023-05-15T17:02:44.422Z,20.51
2023-05-15T17:05:11.665Z,20.54
2023-05-15T17:07:39.088Z,20.56
2023-05-15T17:10:07.462Z,20.65
2023-05-15T17:12:34.903Z,20.71
2023-05-15T17:15:01.814Z,20.72
2023-05-15T17:17:28.692Z,20.80
2023-05-15T17:19:56.162Z,20.70
2023-05-15T17:22:23.353Z,20.67
2023-05-15T17:24:52.196Z,20.74
2023-05-15T17:27:19.793Z,20.72
2023-05-15T17:29:47.465Z,20.70
2023-05-15T17:32:14.461Z,20.73
2023-05-15T17:34:41.384Z,20.70
2023-05-15T17:37:09.367Z,20.73
2023-05-15T17:39:36.242Z,20.70
2023-05-15T17:42:03.524Z,20.73
2023-05-15T17:44:31.279Z,20.77
2023-05-15T17:46:58.824Z,20.79
2023-05-15T17:49:26.482Z,20.78
2023-05-15T17:51:53.999Z,20.83
2023-05-15T17:54:20.928Z,20.86
2023-05-15T17:56:48.159Z,20.87
2023-05-15T17:59:14.953Z,20.90
2023-05-15T18:01:41.840Z,20.79
2023-05-15T18:04:08.858Z,20.83
2023-05-15T18:06:35.914Z,20.77
2023-05-15T18:09:03.318Z,20.75
2023-05-15T18:11:30.112Z,20.84
2023-05-15T18:13:56.992Z,20.86
2023-05-15T18:16:23.866Z,20.90
2023-05-15T18:18:52.238Z,20.91
2023-05-15T18:21:19.210Z,20.89
2023-05-15T18:23:46.150Z,20.88
2023-05-15T18:26:12.993Z,20.87
2023-05-15T18:28:39.808Z,20.85
2023-05-15T18:31:06.662Z,20.82
2023-05-15T18:33:34.192Z,20.77
2023-05-15T18:36:01.066Z,20.69
2023-05-15T18:38:28.300Z,20.67
2023-05-15T18:40:55.093Z,20.63
2023-05-15T18:43:21.849Z,20.58
2023-05-15T18:45:48.620Z,20.48
2023-05-15T18:48:15.711Z,20.41
2023-05-15T18:50:42.601Z,20.43
2023-05-15T18:53:09.418Z,20.35
2023-05-15T18:55:36.247Z,20.32
2023-05-15T18:58:03.056Z,20.33
2023-05-15T19:00:38.145Z,20.26
2023-05-15T19:03:08.597Z,20.24
2023-05-15T19:05:35.702Z,20.20
2023-05-15T19:08:03.152Z,20.16
2023-05-15T19:10:30.660Z,20.18
2023-05-15T19:12:58.386Z,20.10
2023-05-15T19:15:25.706Z,20.07
2023-05-15T19:17:52.831Z,20.05
2023-05-15T19:20:20.135Z,20.03
2023-05-15T19:22:46.931Z,20.05
2023-05-15T19:25:13.661Z,20.01
2023-05-15T19:27:40.646Z,20.02
2023-05-15T19:30:09.415Z,20.02
2023-05-15T19:32:36.633Z,19.99
2023-05-15T19:35:03.522Z,19.96
2023-05-15T19:37:30.434Z,19.98
2023-05-15T19:39:57.228Z,19.98
2023-05-15T19:42:24.034Z,19.96
2023-05-15T19:44:51.996Z,19.92
2023-05-15T19:47:18.741Z,19.89
2023-05-15T19:49:45.660Z,19.89
2023-05-15T19:52:12.435Z,19.88
2023-05-15T19:54:39.197Z,19.90
2023-05-15T19:57:05.959Z,19.90
2023-05-15T19:59:32.653Z,19.90
2023-05-15T20:02:00.425Z,19.92
2023-05-15T20:04:27.914Z,19.89
2023-05-15T20:06:54.836Z,19.85
2023-05-15T20:09:21.667Z,19.84
2023-05-15T20:11:48.450Z,19.72
2023-05-15T20:14:15.359Z,19.65
2023-05-15T20:16:42.176Z,19.66
2023-05-15T20:19:10.968Z,19.68
2023-05-15T20:21:38.388Z,19.62
2023-05-15T20:24:06.001Z,19.44
2023-05-15T20:26:32.789Z,19.45
2023-05-15T20:28:59.495Z,19.37
2023-05-15T20:31:26.248Z,19.38
2023-05-15T20:33:53.070Z,19.32
2023-05-15T20:36:20.220Z,19.37
2023-05-15T20:38:47.696Z,19.35
2023-05-15T20:41:16.500Z,19.38
2023-05-15T20:43:43.257Z,19.44
2023-05-15T20:46:10.267Z,19.43
2023-05-15T20:48:37.445Z,19.33
2023-05-15T20:51:04.428Z,19.22
2023-05-15T20:53:31.151Z,19.27
2023-05-15T20:55:57.937Z,19.23
2023-05-15T20:58:24.663Z,19.30
2023-05-15T21:00:51.478Z,19.29
2023-05-15T21:03:18.339Z,19.30
2023-05-15T21:05:45.322Z,19.29
2023-05-15T21:08:12.180Z,19.29
2023-05-15T21:10:38.949Z,19.28
2023-05-15T21:13:05.771Z,19.35
2023-05-15T21:15:32.528Z,19.38
2023-05-15T21:17:59.326Z,19.42
2023-05-15T21:20:27.096Z,19.46
2023-05-15T21:22:54.204Z,19.48
2023-05-15T21:25:21.552Z,19.51
2023-05-15T21:27:48.407Z,19.47
2023-05-15T21:30:15.350Z,19.47
2023-05-15T21:32:42.116Z,19.40
2023-05-15T21:35:10.246Z,19.42
2023-05-15T21:37:37.055Z,19.35
2023-05-15T21:40:04.980Z,19.24
2023-05-15T21:42:32.236Z,19.17
2023-05-15T21:44:59.525Z,19.11
2023-05-15T21:47:26.272Z,19.06
2023-05-15T21:49:53.094Z,19.05
2023-05-15T21:52:19.838Z,19.05
2023-05-15T21:54:46.633Z,19.03
2023-05-15T21:57:13.439Z,19.04
2023-05-15T21:59:40.281Z,19.02
2023-05-15T22:04:51.594Z,18.88
2023-05-15T22:07:18.665Z,18.85
2023-05-15T22:09:45.680Z,18.86
2023-05-15T22:12:13.435Z,18.81
2023-05-15T22:14:54.681Z,18.82
2023-05-15T22:17:27.340Z,18.71
2023-05-15T22:19:54.448Z,18.59
2023-05-15T22:22:21.473Z,18.47
2023-05-15T22:24:48.361Z,18.35
2023-05-15T22:27:16.836Z,18.38
2023-05-15T22:29:43.833Z,18.41
2023-05-15T22:32:10.854Z,18.39
2023-05-15T22:34:37.762Z,18.32
2023-05-15T22:37:04.828Z,18.32
2023-05-15T22:39:32.079Z,18.30
2023-05-15T22:41:58.904Z,18.30
2023-05-15T22:44:25.778Z,18.27
2023-05-15T22:46:53.228Z,18.24
2023-05-15T22:49:23.772Z,18.28
2023-05-15T22:51:50.885Z,18.27
2023-05-15T22:54:54.759Z,18.26
2023-05-15T22:57:21.661Z,18.12
2023-05-15T22:59:48.506Z,18.03
2023-05-15T23:02:15.450Z,18.08
2023-05-15T23:04:43.319Z,18.09
2023-05-15T23:07:10.241Z,17.99
2023-05-15T23:09:37.090Z,17.94
2023-05-15T23:12:04.499Z,17.97
2023-05-15T23:14:31.361Z,17.94
2023-05-15T23:16:58.176Z,17.93
2023-05-15T23:19:25.083Z,17.74
2023-05-15T23:21:52.160Z,17.63
2023-05-15T23:24:18.998Z,17.44
2023-05-15T23:26:47.073Z,17.52
2023-05-15T23:29:14.669Z,17.28
2023-05-15T23:31:43.267Z,17.25
2023-05-15T23:34:10.221Z,17.25
2023-05-15T23:36:37.053Z,17.24
2023-05-15T23:39:05.156Z,17.26
2023-05-15T23:41:31.990Z,17.05
2023-05-15T23:43:58.804Z,17.02
2023-05-15T23:46:25.817Z,17.05
2023-05-15T23:48:52.753Z,16.94
2023-05-15T23:51:20.611Z,16.98
2023-05-15T23:53:47.531Z,16.94
2023-05-15T23:56:14.368Z,16.89
2023-05-15T23:58:41.811Z,16.89
